createdAt,value
2022-09-25T00:00:55.556Z,83.60
2022-09-25T00:03:25.629Z,83.90
2022-09-25T00:05:54.175Z,84.00
2022-09-25T00:08:22.051Z,83.90
2022-09-25T00:10:50.906Z,84.20
2022-09-25T00:13:20.035Z,84.00
2022-09-25T00:15:49.188Z,84.40
2022-09-25T00:18:17.656Z,84.70
2022-09-25T00:20:46.726Z,85.10
2022-09-25T00:23:14.813Z,84.90
2022-09-25T00:25:43.480Z,84.80
2022-09-25T00:28:15.132Z,84.90
2022-09-25T00:30:45.677Z,85.10
2022-09-25T00:33:13.616Z,85.10
2022-09-25T00:35:41.474Z,85.10
2022-09-25T00:38:09.326Z,85.30
2022-09-25T00:40:37.234Z,85.50
2022-09-25T00:43:06.321Z,85.80
2022-09-25T00:45:34.158Z,85.60
2022-09-25T00:48:04.404Z,85.90
2022-09-25T00:50:51.815Z,85.60
2022-09-25T00:53:22.482Z,86.00
2022-09-25T00:55:50.700Z,86.10
2022-09-25T00:58:21.372Z,86.30
2022-09-25T01:00:52.216Z,86.20
2022-09-25T01:03:21.027Z,86.10
2022-09-25T01:05:49.848Z,86.20
2022-09-25T01:08:20.089Z,86.40
2022-09-25T01:10:48.129Z,86.40
2022-09-25T01:13:16.640Z,86.60
2022-09-25T01:15:49.382Z,86.70
2022-09-25T01:18:22.695Z,86.80
2022-09-25T01:21:09.361Z,87.00
2022-09-25T01:23:37.385Z,87.10
2022-09-25T01:26:05.229Z,87.40
2022-09-25T01:28:36.097Z,87.20
2022-09-25T01:31:09.228Z,87.30
2022-09-25T01:33:52.530Z,87.30
2022-09-25T01:36:34.905Z,87.30
2022-09-25T01:39:05.830Z,87.40
2022-09-25T01:41:38.075Z,87.50
2022-09-25T01:44:09.051Z,87.40
2022-09-25T01:46:40.663Z,87.60
2022-09-25T01:49:19.949Z,87.70
2022-09-25T01:51:51.645Z,87.80
2022-09-25T01:54:22.613Z,87.90
2022-09-25T01:57:04.744Z,87.60
2022-09-25T01:59:45.735Z,87.90
2022-09-25T02:02:16.829Z,88.00
2022-09-25T02:04:56.666Z,88.20
2022-09-25T02:07:28.341Z,88.30
2022-09-25T02:09:59.019Z,88.50
2022-09-25T02:12:27.039Z,88.30
2022-09-25T02:14:58.686Z,88.30
2022-09-25T02:17:50.728Z,88.50
2022-09-25T02:20:33.916Z,88.80
2022-09-25T02:23:17.747Z,88.60
2022-09-25T02:25:50.235Z,88.70
2022-09-25T02:28:18.720Z,88.70
2022-09-25T02:30:47.717Z,88.40
2022-09-25T02:33:15.679Z,88.60
2022-09-25T02:35:43.500Z,88.70
2022-09-25T02:38:11.545Z,89.00
2022-09-25T02:40:47.981Z,89.20
2022-09-25T02:43:16.304Z,89.30
2022-09-25T02:46:03.736Z,89.10
2022-09-25T02:48:50.388Z,89.20
2022-09-25T02:51:18.462Z,89.30
2022-09-25T02:53:54.423Z,89.10
2022-09-25T02:56:29.506Z,89.60
2022-09-25T02:58:59.670Z,89.80
2022-09-25T03:01:29.474Z,89.60
2022-09-25T03:03:58.933Z,90.00
2022-09-25T03:06:27.015Z,90.00
2022-09-25T03:08:57.155Z,89.80
2022-09-25T03:11:27.211Z,89.90
2022-09-25T03:13:58.932Z,90.00
2022-09-25T03:16:30.896Z,90.00
2022-09-25T03:18:58.875Z,90.20
2022-09-25T03:21:26.733Z,90.10
2022-09-25T03:23:57.300Z,90.20
2022-09-25T03:26:26.136Z,90.10
2022-09-25T03:28:54.207Z,90.00
2022-09-25T03:31:22.508Z,90.30
2022-09-25T03:33:50.600Z,90.20
2022-09-25T03:36:20.598Z,90.30
2022-09-25T03:38:49.530Z,90.30
2022-09-25T03:41:20.469Z,90.10
2022-09-25T03:43:51.616Z,90.30
2022-09-25T03:46:22.541Z,90.40
2022-09-25T03:48:50.821Z,90.30
2022-09-25T03:51:19.524Z,90.50
2022-09-25T03:53:48.096Z,90.40
2022-09-25T03:56:17.688Z,90.50
2022-09-25T03:58:45.681Z,90.60
2022-09-25T04:01:14.248Z,90.70
2022-09-25T04:03:47.570Z,90.70
2022-09-25T04:06:19.620Z,90.70
2022-09-25T04:08:48.450Z,90.90
2022-09-25T04:11:17.248Z,90.70
2022-09-25T04:13:45.205Z,90.80
2022-09-25T04:16:13.841Z,91.00
2022-09-25T04:18:43.262Z,91.00
2022-09-25T04:21:12.759Z,90.90
2022-09-25T04:23:40.920Z,90.90
2022-09-25T04:26:09.395Z,90.80
2022-09-25T04:28:37.567Z,90.90
2022-09-25T04:31:05.773Z,90.80
2022-09-25T04:33:48.839Z,90.70
2022-09-25T04:36:17.361Z,90.60
2022-09-25T04:38:45.309Z,90.50
2022-09-25T04:41:13.376Z,90.40
2022-09-25T04:43:43.035Z,90.40
2022-09-25T04:46:16.711Z,90.50
2022-09-25T04:48:46.845Z,90.50
2022-09-25T04:51:15.010Z,90.30
2022-09-25T04:53:43.459Z,90.20
2022-09-25T04:56:16.263Z,90.30
2022-09-25T04:58:45.388Z,90.10
2022-09-25T05:01:14.027Z,90.30
2022-09-25T05:03:43.174Z,90.30
2022-09-25T05:06:11.379Z,90.40
2022-09-25T05:08:40.084Z,90.30
2022-09-25T05:11:08.685Z,90.40
2022-09-25T05:13:36.768Z,90.40
2022-09-25T05:16:04.946Z,90.30
2022-09-25T05:18:33.006Z,90.20
2022-09-25T05:21:04.069Z,90.40
2022-09-25T05:23:31.939Z,90.50
2022-09-25T05:26:02.787Z,90.50
2022-09-25T05:28:31.917Z,90.30
2022-09-25T05:31:05.855Z,90.30
2022-09-25T05:33:34.308Z,90.30
2022-09-25T05:36:03.262Z,90.30
2022-09-25T05:38:35.361Z,90.10
2022-09-25T05:41:07.190Z,89.70
2022-09-25T05:43:35.530Z,89.30
2022-09-25T05:46:03.520Z,89.30
2022-09-25T05:48:31.506Z,88.70
2022-09-25T05:50:59.721Z,88.60
2022-09-25T05:53:28.297Z,88.10
2022-09-25T05:56:00.615Z,87.90
2022-09-25T05:58:29.604Z,88.00
2022-09-25T06:01:00.402Z,87.10
2022-09-25T06:03:31.188Z,86.50
2022-09-25T06:06:00.251Z,85.90
2022-09-25T06:08:31.488Z,85.00
2022-09-25T06:11:01.712Z,85.20
2022-09-25T06:13:32.937Z,84.60
2022-09-25T06:16:01.807Z,82.80
2022-09-25T06:18:29.810Z,81.30
2022-09-25T06:21:02.866Z,80.10
2022-09-25T06:23:30.820Z,79.30
2022-09-25T06:26:06.288Z,78.90
2022-09-25T06:28:34.790Z,78.40
2022-09-25T06:31:04.242Z,78.10
2022-09-25T06:33:32.718Z,77.70
2022-09-25T06:36:01.061Z,77.50
2022-09-25T06:38:29.147Z,76.60
2022-09-25T06:41:00.417Z,76.40
2022-09-25T06:43:29.281Z,76.10
2022-09-25T06:45:59.580Z,74.00
2022-09-25T06:48:27.554Z,73.80
2022-09-25T06:50:56.564Z,72.60
2022-09-25T06:53:25.224Z,71.10
2022-09-25T06:55:54.478Z,70.50
2022-09-25T06:58:23.209Z,68.30
2022-09-25T07:00:52.101Z,68.10
2022-09-25T07:03:39.066Z,69.30
2022-09-25T07:06:08.382Z,70.70
2022-09-25T07:08:36.498Z,70.00
2022-09-25T07:11:05.639Z,67.50
2022-09-25T07:13:35.716Z,64.80
2022-09-25T07:16:07.692Z,61.90
2022-09-25T07:18:35.770Z,60.20
2022-09-25T07:21:32.597Z,59.00
2022-09-25T07:24:00.677Z,58.40
2022-09-25T07:26:30.149Z,56.60
2022-09-25T07:29:02.478Z,55.70
2022-09-25T07:31:31.839Z,56.10
2022-09-25T07:34:03.206Z,56.10
2022-09-25T07:36:32.153Z,55.50
2022-09-25T07:39:00.050Z,54.60
2022-09-25T07:41:28.247Z,54.30
2022-09-25T07:46:46.587Z,53.30
2022-09-25T07:49:14.721Z,53.30
2022-09-25T07:51:42.678Z,52.60
2022-09-25T07:54:10.770Z,50.90
2022-09-25T07:56:38.974Z,51.60
2022-09-25T07:59:07.032Z,51.10
2022-09-25T08:01:38.357Z,50.10
2022-09-25T08:04:10.794Z,50.60
2022-09-25T08:06:39.449Z,49.90
2022-09-25T08:09:10.644Z,49.30
2022-09-25T08:11:39.235Z,48.80
2022-09-25T08:14:07.373Z,48.60
2022-09-25T08:16:35.467Z,48.40
2022-09-25T08:19:04.287Z,45.00
2022-09-25T08:21:32.500Z,47.10
2022-09-25T08:24:01.482Z,45.00
2022-09-25T08:26:29.763Z,46.20
2022-09-25T08:28:57.881Z,45.60
2022-09-25T08:31:28.846Z,44.30
2022-09-25T08:34:02.862Z,45.10
2022-09-25T08:36:43.114Z,45.50
2022-09-25T08:39:11.310Z,44.30
2022-09-25T08:41:58.225Z,42.70
2022-09-25T08:44:32.009Z,43.00
2022-09-25T08:47:32.878Z,42.20
2022-09-25T08:50:10.748Z,41.80
2022-09-25T08:52:41.577Z,38.70
2022-09-25T08:55:14.148Z,39.40
2022-09-25T08:57:44.502Z,37.40
2022-09-25T09:00:21.379Z,37.20
2022-09-25T09:02:54.487Z,38.30
2022-09-25T09:05:26.880Z,39.80
2022-09-25T09:07:58.096Z,39.20
2022-09-25T09:10:26.095Z,36.90
2022-09-25T09:12:58.241Z,36.00
2022-09-25T09:15:47.224Z,35.00
2022-09-25T09:18:21.826Z,34.20
2022-09-25T09:20:54.167Z,34.60
2022-09-25T09:23:23.450Z,34.30
2022-09-25T09:25:51.336Z,32.70
2022-09-25T09:28:35.646Z,31.70
2022-09-25T09:31:04.027Z,32.50
2022-09-25T09:33:48.533Z,30.70
2022-09-25T09:36:19.718Z,31.50
2022-09-25T09:39:06.295Z,31.80
2022-09-25T09:41:50.469Z,31.70
2022-09-25T09:48:09.043Z,31.80
2022-09-25T09:50:43.846Z,30.70
2022-09-25T09:53:19.644Z,29.80
2022-09-25T09:55:56.486Z,29.60
2022-09-25T09:58:46.520Z,29.00
2022-09-25T10:01:40.297Z,30.00
2022-09-25T10:04:11.223Z,28.10
2022-09-25T10:06:41.179Z,28.50
2022-09-25T10:09:10.567Z,28.20
2022-09-25T10:11:40.450Z,27.10
2022-09-25T10:14:11.988Z,26.80
2022-09-25T10:16:40.009Z,27.30
2022-09-25T10:19:12.317Z,27.10
2022-09-25T10:21:45.183Z,27.00
2022-09-25T10:24:33.091Z,25.60
2022-09-25T10:27:20.551Z,26.10
2022-09-25T10:30:01.052Z,25.40
2022-09-25T10:32:29.965Z,26.10
2022-09-25T10:34:57.931Z,25.50
2022-09-25T10:37:35.086Z,24.80
2022-09-25T10:40:07.177Z,24.90
2022-09-25T10:42:37.625Z,25.90
2022-09-25T10:45:24.311Z,24.30
2022-09-25T10:48:10.948Z,24.70
2022-09-25T10:50:38.984Z,24.70
2022-09-25T10:53:07.940Z,24.70
2022-09-25T10:55:37.408Z,25.60
2022-09-25T10:58:09.638Z,24.60
2022-09-25T11:00:42.841Z,25.10
2022-09-25T11:03:23.170Z,25.40
2022-09-25T11:05:55.622Z,25.70
2022-09-25T11:08:25.574Z,26.00
2022-09-25T11:10:59.908Z,26.50
2022-09-25T11:13:30.855Z,26.30
2022-09-25T11:16:04.501Z,26.20
2022-09-25T11:18:45.747Z,26.70
2022-09-25T11:21:33.399Z,26.90
2022-09-25T11:24:10.061Z,27.80
2022-09-25T11:26:45.955Z,26.70
2022-09-25T11:29:33.465Z,26.40
2022-09-25T11:32:06.815Z,26.10
2022-09-25T11:34:52.252Z,27.10
2022-09-25T11:37:39.405Z,26.30
2022-09-25T11:40:25.969Z,26.30
2022-09-25T11:42:58.827Z,26.00
2022-09-25T11:45:31.179Z,26.80
2022-09-25T11:48:03.997Z,24.70
2022-09-25T11:50:52.362Z,25.80
2022-09-25T11:53:33.810Z,24.40
2022-09-25T11:56:04.884Z,25.40
2022-09-25T11:58:53.616Z,25.30
2022-09-25T12:01:45.677Z,25.90
2022-09-25T12:04:35.977Z,25.70
2022-09-25T12:07:14.818Z,25.50
2022-09-25T12:09:48.798Z,26.30
2022-09-25T12:12:33.468Z,24.10
2022-09-25T12:15:10.358Z,25.00
2022-09-25T12:17:52.464Z,25.50
2022-09-25T12:20:41.095Z,24.30
2022-09-25T12:26:03.104Z,24.90
2022-09-25T12:28:52.901Z,26.20
2022-09-25T12:31:27.529Z,24.30
2022-09-25T12:34:01.807Z,25.70
2022-09-25T12:36:37.007Z,24.90
2022-09-25T12:39:14.402Z,25.30
2022-09-25T12:41:52.213Z,25.70
2022-09-25T12:44:39.030Z,25.10
2022-09-25T12:47:15.312Z,26.10
2022-09-25T12:49:47.112Z,27.20
2022-09-25T12:52:18.400Z,28.00
2022-09-25T12:54:48.004Z,26.40
2022-09-25T12:57:39.691Z,26.00
2022-09-25T13:00:16.675Z,26.20
2022-09-25T13:02:51.735Z,25.50
2022-09-25T13:05:35.504Z,27.60
2022-09-25T13:08:06.555Z,26.30
2022-09-25T13:10:38.943Z,26.60
2022-09-25T13:13:13.074Z,26.40
2022-09-25T13:15:46.342Z,27.10
2022-09-25T13:18:18.666Z,27.50
2022-09-25T13:20:47.926Z,29.10
2022-09-25T13:23:18.804Z,29.10
2022-09-25T13:26:10.005Z,27.00
2022-09-25T13:28:39.116Z,29.20
2022-09-25T13:31:09.614Z,28.30
2022-09-25T13:33:50.397Z,25.50
2022-09-25T13:36:25.599Z,28.90
2022-09-25T13:39:15.186Z,27.80
2022-09-25T13:42:02.939Z,29.60
2022-09-25T13:44:57.215Z,28.80
2022-09-25T13:47:25.317Z,30.40
2022-09-25T13:49:54.285Z,30.60
2022-09-25T13:53:13.943Z,31.20
2022-09-25T13:55:42.897Z,30.60
2022-09-25T13:58:23.123Z,28.50
2022-09-25T14:00:59.003Z,29.40
2022-09-25T14:03:38.200Z,29.50
2022-09-25T14:06:10.800Z,29.50
2022-09-25T14:08:40.482Z,30.30
2022-09-25T14:11:09.592Z,30.70
2022-09-25T14:13:37.624Z,31.80
2022-09-25T14:16:10.021Z,31.10
2022-09-25T14:18:41.249Z,33.20
2022-09-25T14:21:10.208Z,32.40
2022-09-25T14:23:48.750Z,30.50
2022-09-25T14:26:22.469Z,31.80
2022-09-25T14:28:51.003Z,33.10
2022-09-25T14:31:40.154Z,31.40
2022-09-25T14:34:08.130Z,31.70
2022-09-25T14:36:39.099Z,32.60
2022-09-25T14:39:28.338Z,32.70
2022-09-25T14:42:19.039Z,33.70
2022-09-25T14:44:57.872Z,34.30
2022-09-25T14:47:30.858Z,35.30
2022-09-25T14:49:59.085Z,34.30
2022-09-25T14:52:28.862Z,34.00
2022-09-25T14:54:57.518Z,34.90
2022-09-25T14:57:27.545Z,36.00
2022-09-25T14:59:58.242Z,34.60
2022-09-25T15:02:26.288Z,35.80
2022-09-25T15:04:58.389Z,36.50
2022-09-25T15:07:28.181Z,36.80
2022-09-25T15:09:56.411Z,37.30
2022-09-25T15:12:25.915Z,38.50
2022-09-25T15:15:08.287Z,39.20
2022-09-25T15:17:58.254Z,39.40
2022-09-25T15:20:28.027Z,40.70
2022-09-25T15:23:04.204Z,41.90
2022-09-25T15:25:38.593Z,42.80
2022-09-25T15:28:12.606Z,43.80
2022-09-25T15:30:42.470Z,44.00
2022-09-25T15:33:23.733Z,44.30
2022-09-25T15:35:58.668Z,43.90
2022-09-25T15:38:30.942Z,44.10
2022-09-25T15:40:59.325Z,44.60
2022-09-25T15:43:27.402Z,44.90
2022-09-25T15:45:55.297Z,45.00
2022-09-25T15:48:33.605Z,45.30
2022-09-25T15:51:03.179Z,45.70
2022-09-25T15:53:36.430Z,46.40
2022-09-25T15:56:27.952Z,47.10
2022-09-25T15:59:01.128Z,46.80
2022-09-25T16:01:48.698Z,47.80
2022-09-25T16:04:41.215Z,48.30
2022-09-25T16:07:29.426Z,48.50
2022-09-25T16:09:58.821Z,48.40
2022-09-25T16:12:27.009Z,49.10
2022-09-25T16:14:55.540Z,49.20
2022-09-25T16:17:25.832Z,49.20
2022-09-25T16:20:00.009Z,49.50
2022-09-25T16:22:29.564Z,49.70
2022-09-25T16:24:58.160Z,50.30
2022-09-25T16:27:32.865Z,51.10
2022-09-25T16:30:04.305Z,50.10
2022-09-25T16:32:32.961Z,50.30
2022-09-25T16:35:02.214Z,51.40
2022-09-25T16:37:32.792Z,51.60
2022-09-25T16:40:19.383Z,51.60
2022-09-25T16:42:47.712Z,50.20
2022-09-25T16:45:18.007Z,51.00
2022-09-25T16:47:49.630Z,51.80
2022-09-25T16:50:18.930Z,52.70
2022-09-25T16:52:48.010Z,52.00
2022-09-25T16:55:18.730Z,51.60
2022-09-25T16:57:46.728Z,52.00
2022-09-25T17:00:17.052Z,53.00
2022-09-25T17:02:46.131Z,53.30
2022-09-25T17:05:17.951Z,53.40
2022-09-25T17:07:47.343Z,52.10
2022-09-25T17:10:16.522Z,52.70
2022-09-25T17:12:49.792Z,53.30
2022-09-25T17:15:26.056Z,54.00
2022-09-25T17:17:55.402Z,54.00
2022-09-25T17:20:24.371Z,54.40
2022-09-25T17:22:52.910Z,54.80
2022-09-25T17:25:39.514Z,55.20
2022-09-25T17:28:08.612Z,55.40
2022-09-25T17:30:36.793Z,55.80
2022-09-25T17:33:08.185Z,56.20
2022-09-25T17:35:42.372Z,56.60
2022-09-25T17:38:12.664Z,56.80
2022-09-25T17:40:45.057Z,57.00
2022-09-25T17:43:14.265Z,57.20
2022-09-25T17:45:48.681Z,57.50
2022-09-25T17:48:24.528Z,57.60
2022-09-25T17:50:53.127Z,58.20
2022-09-25T17:53:22.359Z,58.50
2022-09-25T17:55:53.764Z,58.90
2022-09-25T17:58:23.015Z,59.10
2022-09-25T18:00:51.710Z,59.50
2022-09-25T18:03:20.203Z,60.60
2022-09-25T18:05:48.334Z,59.80
2022-09-25T18:08:16.221Z,60.10
2022-09-25T18:10:44.766Z,60.30
2022-09-25T18:13:14.300Z,60.60
2022-09-25T18:15:46.896Z,61.10
2022-09-25T18:18:15.214Z,61.20
2022-09-25T18:21:05.702Z,61.30
2022-09-25T18:23:38.328Z,61.70
2022-09-25T18:26:07.450Z,61.90
2022-09-25T18:28:35.400Z,61.80
2022-09-25T18:31:03.737Z,62.20
2022-09-25T18:33:31.838Z,62.40
2022-09-25T18:36:00.264Z,63.00
2022-09-25T18:38:28.427Z,63.20
2022-09-25T18:40:56.390Z,63.20
2022-09-25T18:43:24.326Z,63.50
2022-09-25T18:45:52.357Z,63.70
2022-09-25T18:48:21.223Z,63.80
2022-09-25T18:50:49.597Z,64.10
2022-09-25T18:53:17.941Z,64.10
2022-09-25T18:55:45.997Z,64.20
2022-09-25T18:58:13.873Z,64.40
2022-09-25T19:00:42.771Z,64.80
2022-09-25T19:03:10.723Z,65.00
2022-09-25T19:05:39.519Z,64.90
2022-09-25T19:08:07.555Z,65.50
2022-09-25T19:10:35.483Z,65.70
2022-09-25T19:13:04.591Z,65.90
2022-09-25T19:15:33.751Z,66.00
2022-09-25T19:18:01.775Z,66.40
2022-09-25T19:20:29.651Z,66.20
2022-09-25T19:22:57.880Z,66.80
2022-09-25T19:25:25.943Z,66.90
2022-09-25T19:27:53.991Z,67.10
2022-09-25T19:30:22.054Z,67.20
2022-09-25T19:32:51.299Z,67.30
2022-09-25T19:35:19.387Z,67.70
2022-09-25T19:37:47.675Z,68.10
2022-09-25T19:40:34.275Z,68.00
2022-09-25T19:43:02.260Z,68.30
2022-09-25T19:45:30.127Z,68.30
2022-09-25T19:47:58.257Z,68.50
2022-09-25T19:50:26.233Z,68.80
2022-09-25T19:52:55.115Z,68.60
2022-09-25T19:55:23.565Z,68.80
2022-09-25T19:57:51.556Z,68.90
2022-09-25T20:00:19.683Z,68.80
2022-09-25T20:02:47.796Z,69.20
2022-09-25T20:05:17.472Z,69.30
2022-09-25T20:07:45.645Z,69.70
2022-09-25T20:10:14.196Z,69.90
2022-09-25T20:12:42.041Z,70.00
2022-09-25T20:15:10.158Z,70.30
2022-09-25T20:17:38.189Z,70.60
2022-09-25T20:20:06.228Z,70.60
2022-09-25T20:22:34.091Z,70.70
2022-09-25T20:25:02.150Z,70.80
2022-09-25T20:27:30.138Z,71.00
2022-09-25T20:29:58.325Z,71.10
2022-09-25T20:32:26.349Z,71.20
2022-09-25T20:34:55.291Z,71.20
2022-09-25T20:37:23.208Z,71.70
2022-09-25T20:39:51.525Z,71.70
2022-09-25T20:42:19.523Z,71.60
2022-09-25T20:44:47.513Z,71.70
2022-09-25T20:47:15.689Z,71.80
2022-09-25T20:49:44.263Z,72.20
2022-09-25T20:52:12.746Z,72.20
2022-09-25T20:54:42.602Z,72.50
2022-09-25T20:57:10.802Z,72.60
2022-09-25T20:59:38.819Z,72.90
2022-09-25T21:02:06.958Z,72.80
2022-09-25T21:04:35.160Z,72.90
2022-09-25T21:07:03.950Z,72.90
2022-09-25T21:09:31.792Z,73.30
2022-09-25T21:11:59.719Z,73.80
2022-09-25T21:14:28.395Z,73.80
2022-09-25T21:16:59.412Z,73.90
2022-09-25T21:19:28.673Z,74.20
2022-09-25T21:21:56.650Z,74.50
2022-09-25T21:24:24.654Z,75.10
2022-09-25T21:26:52.653Z,74.60
2022-09-25T21:29:20.928Z,75.20
2022-09-25T21:31:50.819Z,75.00
2022-09-25T21:34:19.992Z,75.30
2022-09-25T21:36:48.463Z,75.00
2022-09-25T21:39:16.649Z,75.50
2022-09-25T21:41:44.839Z,75.60
2022-09-25T21:44:13.709Z,75.90
2022-09-25T21:46:41.702Z,76.10
2022-09-25T21:49:15.204Z,76.00
2022-09-25T21:51:44.143Z,76.10
2022-09-25T21:54:12.935Z,76.50
2022-09-25T21:56:41.640Z,77.00
2022-09-25T21:59:09.780Z,77.00
2022-09-25T22:01:39.004Z,77.00
2022-09-25T22:04:07.748Z,77.20
2022-09-25T22:06:37.351Z,77.30
2022-09-25T22:09:06.990Z,77.40
2022-09-25T22:11:34.933Z,77.70
2022-09-25T22:14:02.914Z,77.80
2022-09-25T22:16:32.245Z,77.70
2022-09-25T22:19:01.875Z,77.90
2022-09-25T22:21:30.860Z,78.10
2022-09-25T22:23:59.177Z,78.40
2022-09-25T22:26:28.245Z,78.20
2022-09-25T22:28:56.836Z,78.50
2022-09-25T22:31:26.064Z,78.80
2022-09-25T22:33:55.455Z,79.20
2022-09-25T22:36:23.506Z,79.40
2022-09-25T22:38:51.392Z,79.30
2022-09-25T22:41:19.421Z,79.50
2022-09-25T22:43:49.915Z,79.90
2022-09-25T22:46:17.870Z,79.80
2022-09-25T22:48:45.909Z,79.60
2022-09-25T22:51:15.264Z,80.00
2022-09-25T22:53:43.634Z,79.90
2022-09-25T22:56:14.540Z,80.00
2022-09-25T22:58:43.439Z,80.40
2022-09-25T23:01:13.347Z,80.30
2022-09-25T23:03:41.243Z,80.40
2022-09-25T23:06:09.174Z,80.70
2022-09-25T23:08:37.105Z,80.70
2022-09-25T23:11:07.886Z,81.00
2022-09-25T23:13:36.850Z,81.10
2022-09-25T23:16:06.812Z,81.50
2022-09-25T23:18:35.661Z,81.40
2022-09-25T23:21:03.894Z,81.70
2022-09-25T23:23:32.222Z,81.80
2022-09-25T23:26:06.478Z,82.00
2022-09-25T23:28:38.419Z,81.80
2022-09-25T23:31:11.376Z,82.30
2022-09-25T23:33:40.396Z,82.40
2022-09-25T23:36:13.349Z,82.90
2022-09-25T23:38:41.276Z,82.70
2022-09-25T23:41:18.227Z,82.80
2022-09-25T23:43:47.288Z,83.00
2022-09-25T23:46:18.779Z,83.20
2022-09-25T23:48:47.279Z,83.00
2022-09-25T23:51:15.850Z,83.30
2022-09-25T23:53:44.172Z,83.30
2022-09-25T23:56:16.539Z,83.50
2022-09-25T23:58:44.553Z,83.30
